Etusivu
METAR-TAF:

METAR-TAF

Lentoasemat :

Kinshasa, Kongo

N’Djilin kansainvälinen lentoasema

Leveyspiiri: 04-23S, Pituuspiiri: 015-26E, korkeus merenpinnasta: 309 m

Tämänhetkinen sää

Tämä raportti tehtiin 1 tunti ja 28 minuuttia sitten, kello 20.00 UTC
tyyntä
Lämpötila 25°C
Kosteus 69%
Ilmanpaine 1013 hPa
Näkyvyys: 6000 m

METAR: FZAA 172000Z 00000KT 6000 NSC 25/19 Q1013 NOSIG

Aika: 22:28 (21:28 UTC)

Sääennuste

Tämä raportti tehtiin 10 tuntia ja 28 minuuttia sitten, kello 11.00 UTC
Ennuste voimassa 17. päivästä klo 12 UTC - 18. päivään klo 18 UTC
Tuuli 6 kn lännestä
Näkyvyys: 6000 m
Hajanaisia pilviä 2000 ft:n korkeudessa
Tulossa
18. päivästä klo 04 UTC - 18. päivään klo 06 UTC
Näkyvyys: 4000 m
Hajonneita pilviä 1500 ft:n korkeudessa
utua
From UTC
Tuuli 10 kn pohjoisen/luoteesta
Näkyvyys: 7000 m
Muutamia pilviä 2000 ft:n korkeudessa

TAF: FZAA 171100Z 1712/1818 27006KT 6000 SCT020 BECMG 1804/1806 4000 BR BKN015 FM 181000 34010KT 7000 NSW FEW020

Säähavainnot ja -ennusteet yli 4000 lentoasemalta (METAR- ja TAF-raportit).

Käytössä olevat sääasemat on merkitty karttaan keltaisilla ja punaisilla pisteillä.

Aseta hiiri pisteen päälle nähdäksesi sääaseman nimen.

Klikkaa sitten nähdäksesi säähavainnot ja -ennusteet.

Kartan vaihtaminen: klikkaa mustalla rastilla varustettuja vihreitä pisteitä, niin voit zoomata sisään; viivalla varustettua vihreää pistettä, niin voit zoomata ulos tai vihreitä nuolia, niin pääset viereisille kartoille.


METAR-TAF: